createdAt,value
2018-11-23T00:00:28.269Z,81.37
2018-11-23T00:02:58.028Z,80.00
2018-11-23T00:05:26.967Z,86.50
2018-11-23T00:07:56.628Z,86.63
2018-11-23T00:10:26.843Z,84.45
2018-11-23T00:12:55.758Z,83.17
2018-11-23T00:15:25.271Z,81.40
2018-11-23T00:17:54.181Z,85.75
2018-11-23T00:20:24.517Z,82.78
2018-11-23T00:22:53.398Z,84.90
2018-11-23T00:25:23.396Z,86.12
2018-11-23T00:27:52.665Z,87.63
2018-11-23T00:30:22.898Z,88.40
2018-11-23T00:32:52.382Z,82.80
2018-11-23T00:35:25.956Z,93.42
2018-11-23T00:37:55.380Z,86.47
2018-11-23T00:40:26.541Z,79.45
2018-11-23T00:42:55.730Z,83.17
2018-11-23T00:45:24.663Z,83.90
2018-11-23T00:47:54.310Z,80.53
2018-11-23T00:50:24.364Z,82.45
2018-11-23T00:52:54.150Z,85.22
2018-11-23T00:55:23.874Z,91.57
2018-11-23T00:57:52.910Z,87.53
2018-11-23T01:00:27.215Z,88.62
2018-11-23T01:02:56.970Z,84.55
2018-11-23T01:05:25.914Z,80.07
2018-11-23T01:07:54.887Z,90.70
2018-11-23T01:10:24.783Z,88.55
2018-11-23T01:12:54.700Z,91.17
2018-11-23T01:15:23.647Z,89.83
2018-11-23T01:17:52.569Z,89.07
2018-11-23T01:20:23.923Z,90.50
2018-11-23T01:22:53.407Z,94.28
2018-11-23T01:25:23.346Z,98.95
2018-11-23T01:27:53.361Z,88.57
2018-11-23T01:30:30.847Z,89.83
2018-11-23T01:32:59.833Z,86.72
2018-11-23T01:35:28.781Z,91.73
2018-11-23T01:37:57.668Z,89.77
2018-11-23T01:40:27.838Z,83.00
2018-11-23T01:42:57.121Z,89.03
2018-11-23T01:45:26.105Z,86.05
2018-11-23T01:47:55.002Z,88.97
2018-11-23T01:50:26.547Z,87.78
2018-11-23T01:52:55.470Z,85.25
2018-11-23T01:55:25.075Z,79.50
2018-11-23T01:57:54.011Z,76.35
2018-11-23T02:00:24.297Z,78.22
2018-11-23T02:02:54.094Z,86.63
2018-11-23T02:05:23.059Z,84.85
2018-11-23T02:07:51.998Z,78.65
2018-11-23T02:10:21.072Z,86.15
2018-11-23T02:12:49.994Z,81.08
2018-11-23T02:15:21.125Z,80.57
2018-11-23T02:17:50.702Z,79.97
2018-11-23T02:20:20.330Z,83.92
2018-11-23T02:22:49.278Z,83.62
2018-11-23T02:25:18.226Z,78.42
2018-11-23T02:27:47.182Z,85.03
2018-11-23T02:30:20.868Z,83.35
2018-11-23T02:32:49.836Z,86.12
2018-11-23T02:35:18.835Z,83.55
2018-11-23T02:37:47.811Z,88.27
2018-11-23T02:40:17.935Z,86.42
2018-11-23T02:42:46.956Z,85.55
2018-11-23T02:45:17.470Z,85.05
2018-11-23T02:47:47.102Z,88.15
2018-11-23T02:50:16.117Z,91.60
2018-11-23T02:52:45.404Z,87.33
2018-11-23T02:55:15.491Z,89.92
2018-11-23T02:57:44.478Z,88.97
2018-11-23T03:00:16.050Z,85.40
2018-11-23T03:02:45.091Z,85.63
2018-11-23T03:05:15.762Z,92.67
2018-11-23T03:07:44.810Z,99.40
2018-11-23T03:10:14.792Z,85.15
2018-11-23T03:12:44.419Z,85.77
2018-11-23T03:15:15.210Z,88.80
2018-11-23T03:17:44.745Z,93.30
2018-11-23T03:20:15.240Z,93.50
2018-11-23T03:22:44.266Z,91.40
2018-11-23T03:25:13.863Z,100.67
2018-11-23T03:27:42.803Z,93.47
2018-11-23T03:30:15.305Z,92.67
2018-11-23T03:32:45.053Z,91.70
2018-11-23T03:35:14.095Z,90.85
2018-11-23T03:37:43.162Z,87.15
2018-11-23T03:40:12.114Z,89.52
2018-11-23T03:42:41.084Z,94.05
2018-11-23T03:45:11.418Z,90.90
2018-11-23T03:47:40.716Z,90.05
2018-11-23T03:50:10.745Z,92.80
2018-11-23T03:52:39.719Z,89.77
2018-11-23T03:55:08.649Z,82.78
2018-11-23T03:57:37.569Z,89.47
2018-11-23T04:00:17.948Z,88.03
2018-11-23T04:02:46.959Z,86.95
2018-11-23T04:05:16.039Z,87.40
2018-11-23T04:07:44.955Z,91.02
2018-11-23T04:10:14.832Z,90.12
2018-11-23T04:12:44.264Z,91.35
2018-11-23T04:15:13.655Z,90.95
2018-11-23T04:17:42.756Z,87.83
2018-11-23T04:20:16.330Z,87.27
2018-11-23T04:22:45.263Z,86.22
2018-11-23T04:25:14.542Z,87.50
2018-11-23T04:27:43.885Z,90.73
2018-11-23T04:30:14.586Z,90.27
2018-11-23T04:32:44.011Z,95.20
2018-11-23T04:35:14.175Z,93.65
2018-11-23T04:37:44.720Z,91.70
2018-11-23T04:40:14.623Z,93.80
2018-11-23T04:42:44.347Z,93.15
2018-11-23T04:45:14.554Z,91.00
2018-11-23T04:47:44.150Z,90.75
2018-11-23T04:50:15.425Z,92.55
2018-11-23T04:52:44.714Z,83.22
2018-11-23T04:55:14.469Z,88.87
2018-11-23T04:57:44.034Z,89.83
2018-11-23T05:00:14.750Z,86.32
2018-11-23T05:02:44.317Z,84.57
2018-11-23T05:05:13.555Z,87.67
2018-11-23T05:07:43.581Z,88.72
2018-11-23T05:10:13.776Z,85.00
2018-11-23T05:12:42.691Z,82.23
2018-11-23T05:15:12.995Z,89.83
2018-11-23T05:17:42.267Z,86.40
2018-11-23T05:20:11.803Z,87.53
2018-11-23T05:22:41.015Z,84.93
2018-11-23T05:25:11.306Z,87.42
2018-11-23T05:27:40.230Z,87.83
2018-11-23T05:30:11.954Z,86.47
2018-11-23T05:32:40.926Z,85.50
2018-11-23T05:35:10.991Z,89.40
2018-11-23T05:37:39.979Z,85.83
2018-11-23T05:40:11.147Z,86.80
2018-11-23T05:42:40.109Z,96.87
2018-11-23T05:45:11.587Z,98.75
2018-11-23T05:47:40.581Z,94.28
2018-11-23T05:50:17.114Z,89.32
2018-11-23T05:52:46.179Z,91.17
2018-11-23T05:55:15.123Z,87.53
2018-11-23T05:57:44.114Z,85.35
2018-11-23T06:00:16.516Z,93.25
2018-11-23T06:02:45.487Z,89.28
2018-11-23T06:05:14.427Z,95.20
2018-11-23T06:07:43.339Z,91.05
2018-11-23T06:10:14.391Z,93.40
2018-11-23T06:12:43.347Z,93.58
2018-11-23T06:15:15.031Z,90.60
2018-11-23T06:17:44.402Z,91.87
2018-11-23T06:20:15.574Z,91.37
2018-11-23T06:22:45.735Z,93.95
2018-11-23T06:25:25.564Z,90.10
2018-11-23T06:27:54.574Z,93.67
2018-11-23T06:30:23.502Z,88.07
2018-11-23T06:33:03.690Z,87.55
2018-11-23T06:35:32.607Z,82.95
2018-11-23T06:38:01.527Z,91.63
2018-11-23T06:40:30.438Z,85.40
2018-11-23T06:42:59.802Z,85.40
2018-11-23T06:45:29.165Z,91.63
2018-11-23T06:47:58.071Z,88.45
2018-11-23T06:50:27.002Z,87.57
2018-11-23T06:52:55.903Z,87.43
2018-11-23T06:55:24.800Z,83.50
2018-11-23T06:57:53.707Z,94.07
2018-11-23T07:00:22.682Z,87.17
2018-11-23T07:02:51.570Z,87.70
2018-11-23T07:05:20.492Z,94.05
2018-11-23T07:07:49.454Z,96.22
2018-11-23T07:10:18.371Z,96.15
2018-11-23T07:12:47.266Z,100.15
2018-11-23T07:15:17.175Z,102.80
2018-11-23T07:17:45.077Z,87.70
2018-11-23T07:20:14.826Z,67.80
2018-11-23T07:22:44.100Z,67.60
2018-11-23T07:25:13.937Z,61.68
2018-11-23T07:27:43.421Z,72.03
2018-11-23T07:30:17.415Z,71.63
2018-11-23T07:32:46.390Z,72.97
2018-11-23T07:35:15.847Z,64.80
2018-11-23T07:37:44.721Z,67.43
2018-11-23T07:40:27.641Z,62.45
2018-11-23T07:42:56.915Z,66.47
2018-11-23T07:45:25.846Z,69.77
2018-11-23T07:47:54.733Z,72.30
2018-11-23T07:50:23.626Z,72.60
2018-11-23T07:52:52.522Z,74.82
2018-11-23T07:55:21.469Z,70.95
2018-11-23T07:57:50.390Z,75.10
2018-11-23T08:00:20.826Z,69.65
2018-11-23T08:02:50.079Z,69.20
2018-11-23T08:05:19.820Z,68.47
2018-11-23T08:07:48.702Z,66.20
2018-11-23T08:10:16.796Z,72.27
2018-11-23T08:12:47.090Z,72.73
2018-11-23T08:15:21.915Z,73.75
2018-11-23T08:17:50.842Z,77.65
2018-11-23T08:20:20.830Z,81.02
2018-11-23T08:22:49.746Z,71.63
2018-11-23T08:25:19.943Z,78.57
2018-11-23T08:27:49.826Z,81.60
2018-11-23T08:30:22.967Z,80.47
2018-11-23T08:32:51.898Z,86.97
2018-11-23T08:35:20.843Z,82.33
2018-11-23T08:37:49.752Z,83.27
2018-11-23T08:40:21.670Z,80.28
2018-11-23T08:42:51.573Z,82.00
2018-11-23T08:45:22.003Z,84.22
2018-11-23T08:47:50.899Z,84.17
2018-11-23T08:50:23.157Z,83.65
2018-11-23T08:52:52.058Z,81.72
2018-11-23T08:55:21.330Z,78.55
2018-11-23T08:57:50.266Z,78.42
2018-11-23T09:00:21.055Z,95.40
2018-11-23T09:02:52.132Z,91.37
2018-11-23T09:05:21.051Z,77.17
2018-11-23T09:07:51.141Z,62.13
2018-11-23T09:10:22.719Z,61.18
2018-11-23T09:12:59.998Z,66.35
2018-11-23T09:15:28.926Z,61.85
2018-11-23T09:17:57.856Z,56.88
2018-11-23T09:20:26.765Z,54.80
2018-11-23T09:22:55.698Z,54.00
2018-11-23T09:25:24.901Z,59.50
2018-11-23T09:27:53.906Z,54.50
2018-11-23T09:30:24.073Z,52.73
2018-11-23T09:32:53.733Z,58.25
2018-11-23T09:35:22.840Z,53.52
2018-11-23T09:37:52.082Z,53.03
2018-11-23T09:40:22.161Z,50.48
2018-11-23T09:42:51.418Z,51.95
2018-11-23T09:45:21.650Z,53.40
2018-11-23T09:47:51.774Z,56.90
2018-11-23T09:50:21.814Z,55.45
2018-11-23T09:52:51.933Z,51.73
2018-11-23T09:55:21.498Z,54.03
2018-11-23T09:57:50.465Z,53.35
2018-11-23T10:00:27.471Z,54.38
2018-11-23T10:02:57.093Z,54.42
2018-11-23T10:05:26.802Z,56.23
2018-11-23T10:07:57.369Z,53.80
2018-11-23T10:10:26.839Z,53.93
2018-11-23T10:12:55.749Z,49.73
2018-11-23T10:15:25.511Z,50.95
2018-11-23T10:17:54.442Z,48.35
2018-11-23T10:20:25.763Z,55.73
2018-11-23T10:22:54.962Z,50.30
2018-11-23T10:25:25.366Z,51.00
2018-11-23T10:27:54.298Z,53.55
2018-11-23T10:30:26.326Z,61.55
2018-11-23T10:32:56.762Z,51.77
2018-11-23T10:35:26.050Z,47.55
2018-11-23T10:37:56.312Z,43.45
2018-11-23T10:40:26.621Z,43.28
2018-11-23T10:42:55.528Z,43.78
2018-11-23T10:45:26.742Z,47.95
2018-11-23T10:47:56.417Z,44.00
2018-11-23T10:50:28.015Z,46.20
2018-11-23T10:52:56.931Z,45.65
2018-11-23T10:55:27.515Z,42.90
2018-11-23T10:57:56.478Z,49.80
2018-11-23T11:00:30.566Z,50.45
2018-11-23T11:03:07.680Z,46.83
2018-11-23T11:05:41.829Z,50.55
2018-11-23T11:08:10.746Z,48.53
2018-11-23T11:10:39.649Z,50.40
2018-11-23T11:13:08.607Z,51.13
2018-11-23T11:15:37.502Z,52.95
2018-11-23T11:18:06.435Z,52.60
2018-11-23T11:20:35.334Z,53.28
2018-11-23T11:23:04.271Z,57.03
2018-11-23T11:25:33.163Z,54.93
2018-11-23T11:28:02.095Z,50.95
2018-11-23T11:30:31.023Z,51.48
2018-11-23T11:32:59.948Z,56.08
2018-11-23T11:35:28.864Z,54.95
2018-11-23T11:37:57.781Z,56.25
2018-11-23T11:40:26.706Z,56.15
2018-11-23T11:42:55.614Z,55.70
2018-11-23T11:45:24.565Z,56.80
2018-11-23T11:47:53.524Z,52.73
2018-11-23T11:50:22.463Z,53.10
2018-11-23T11:52:51.467Z,52.03
2018-11-23T11:55:21.153Z,53.13
2018-11-23T11:57:50.243Z,54.70
2018-11-23T12:00:21.214Z,51.37
2018-11-23T12:02:50.206Z,57.08
2018-11-23T12:05:19.138Z,55.30
2018-11-23T12:07:48.088Z,51.02
2018-11-23T12:10:19.514Z,53.07
2018-11-23T12:12:48.437Z,51.15
2018-11-23T12:15:17.474Z,55.67
2018-11-23T12:17:46.418Z,52.48
2018-11-23T12:20:18.723Z,49.53
2018-11-23T12:22:48.167Z,49.50
2018-11-23T12:25:17.578Z,54.07
2018-11-23T12:27:46.485Z,50.43
2018-11-23T12:30:18.626Z,51.83
2018-11-23T12:32:48.706Z,52.93
2018-11-23T12:35:19.572Z,50.58
2018-11-23T12:37:48.490Z,50.03
2018-11-23T12:40:18.470Z,50.40
2018-11-23T12:42:47.976Z,50.73
2018-11-23T12:45:19.336Z,142.43
2018-11-23T12:47:48.368Z,83.57
2018-11-23T12:50:19.151Z,60.40
2018-11-23T12:52:48.121Z,55.43
2018-11-23T12:55:17.774Z,53.73
2018-11-23T12:57:46.751Z,53.30
2018-11-23T13:00:21.826Z,50.03
2018-11-23T13:02:54.141Z,49.67
2018-11-23T13:05:24.059Z,50.92
2018-11-23T13:07:53.899Z,46.37
2018-11-23T13:10:23.867Z,44.83
2018-11-23T13:12:53.275Z,47.50
2018-11-23T13:15:22.228Z,48.83
2018-11-23T13:17:53.285Z,51.50
2018-11-23T13:20:22.254Z,50.45
2018-11-23T13:22:51.196Z,47.47
2018-11-23T13:25:21.663Z,50.30
2018-11-23T13:27:50.634Z,48.70
2018-11-23T13:30:21.351Z,47.80
2018-11-23T13:32:50.272Z,50.55
2018-11-23T13:35:19.783Z,49.57
2018-11-23T13:37:48.744Z,54.42
2018-11-23T13:40:19.894Z,50.52
2018-11-23T13:42:49.262Z,51.08
2018-11-23T13:45:23.598Z,51.92
2018-11-23T13:47:52.534Z,52.40
2018-11-23T13:50:22.611Z,53.00
2018-11-23T13:52:52.814Z,55.80
2018-11-23T13:55:21.754Z,50.85
2018-11-23T13:57:50.963Z,49.93
2018-11-23T14:00:21.323Z,49.05
2018-11-23T14:02:50.306Z,57.75
2018-11-23T14:05:20.526Z,56.67
2018-11-23T14:07:52.839Z,51.80
2018-11-23T14:10:23.027Z,48.33
2018-11-23T14:12:52.010Z,50.17
2018-11-23T14:15:24.119Z,50.43
2018-11-23T14:17:54.218Z,53.60
2018-11-23T14:20:24.407Z,50.98
2018-11-23T14:22:53.483Z,51.00
2018-11-23T14:25:29.990Z,49.10
2018-11-23T14:27:59.315Z,51.87
2018-11-23T14:30:31.843Z,47.83
2018-11-23T14:33:01.912Z,50.88
2018-11-23T14:35:32.078Z,46.02
2018-11-23T14:38:01.728Z,49.18
2018-11-23T14:40:30.664Z,45.67
2018-11-23T14:42:59.708Z,48.95
2018-11-23T14:45:29.862Z,51.20
2018-11-23T14:48:03.751Z,50.35
2018-11-23T14:50:34.015Z,51.33
2018-11-23T14:53:02.975Z,50.73
2018-11-23T14:55:32.339Z,46.53
2018-11-23T14:58:01.278Z,47.77
2018-11-23T15:00:31.729Z,48.45
2018-11-23T15:03:01.686Z,48.85
2018-11-23T15:05:30.620Z,50.37
2018-11-23T15:07:59.588Z,50.45
2018-11-23T15:10:29.633Z,52.33
2018-11-23T15:13:00.067Z,51.18
2018-11-23T15:15:30.294Z,50.08
2018-11-23T15:18:00.001Z,51.90
2018-11-23T15:20:31.671Z,52.67
2018-11-23T15:23:02.320Z,49.48
2018-11-23T15:25:31.238Z,54.13
2018-11-23T15:28:00.170Z,54.88
2018-11-23T15:30:30.563Z,50.85
2018-11-23T15:32:59.946Z,49.95
2018-11-23T15:35:30.051Z,50.77
2018-11-23T15:37:59.002Z,53.48
2018-11-23T15:40:28.903Z,50.78
2018-11-23T15:42:59.451Z,55.63
2018-11-23T15:45:29.576Z,55.30
2018-11-23T15:47:59.154Z,57.95
2018-11-23T15:50:29.799Z,58.42
2018-11-23T15:52:58.781Z,53.92
2018-11-23T15:55:29.668Z,59.63
2018-11-23T15:58:00.451Z,56.75
2018-11-23T16:00:34.071Z,56.93
2018-11-23T16:03:03.012Z,61.95
2018-11-23T16:05:32.035Z,73.05
2018-11-23T16:08:03.579Z,61.20
2018-11-23T16:10:36.289Z,65.50
2018-11-23T16:13:11.198Z,71.30
2018-11-23T16:15:35.881Z,63.33
2018-11-23T16:18:05.381Z,59.73
2018-11-23T16:20:37.688Z,59.57
2018-11-23T16:23:08.607Z,65.95
2018-11-23T16:25:37.720Z,69.92
2018-11-23T16:28:07.803Z,63.47
2018-11-23T16:30:38.959Z,65.23
2018-11-23T16:33:09.687Z,59.63
2018-11-23T16:35:39.395Z,64.43
2018-11-23T16:38:10.647Z,64.45
2018-11-23T16:40:42.915Z,67.53
2018-11-23T16:43:13.459Z,56.95
2018-11-23T16:45:43.072Z,64.93
2018-11-23T16:48:12.934Z,68.17
2018-11-23T16:50:41.890Z,66.87
2018-11-23T16:53:10.801Z,73.77
2018-11-23T16:55:39.745Z,100.78
2018-11-23T16:58:10.756Z,175.12
2018-11-23T17:00:40.315Z,147.17
2018-11-23T17:03:10.511Z,96.13
2018-11-23T17:05:41.019Z,77.43
2018-11-23T17:08:10.302Z,72.00
2018-11-23T17:10:39.229Z,62.83
2018-11-23T17:13:08.414Z,63.85
2018-11-23T17:15:37.446Z,61.13
2018-11-23T17:18:06.717Z,63.57
2018-11-23T17:20:36.195Z,58.58
2018-11-23T17:23:07.513Z,65.20
2018-11-23T17:25:36.490Z,63.93
2018-11-23T17:28:06.938Z,60.67
2018-11-23T17:30:36.465Z,60.93
2018-11-23T17:33:05.863Z,67.25
2018-11-23T17:35:34.868Z,58.27
2018-11-23T17:38:03.832Z,67.78
2018-11-23T17:40:34.699Z,68.85
2018-11-23T17:43:03.664Z,71.07
2018-11-23T17:45:33.259Z,66.73
2018-11-23T17:48:02.323Z,61.13
2018-11-23T17:50:32.795Z,61.90
2018-11-23T17:53:01.911Z,85.42
2018-11-23T17:55:30.911Z,108.70
2018-11-23T17:57:59.953Z,110.57
2018-11-23T18:00:30.077Z,116.97
2018-11-23T18:03:00.035Z,88.77
2018-11-23T18:05:29.600Z,78.90
2018-11-23T18:07:59.012Z,70.30
2018-11-23T18:10:29.338Z,68.35
2018-11-23T18:12:59.146Z,66.70
2018-11-23T18:15:29.446Z,65.67
2018-11-23T18:17:59.381Z,66.43
2018-11-23T18:20:29.043Z,65.72
2018-11-23T18:22:58.806Z,67.40
2018-11-23T18:25:30.193Z,59.67
2018-11-23T18:28:02.219Z,62.10
2018-11-23T18:30:32.477Z,61.37
2018-11-23T18:33:03.041Z,66.67
2018-11-23T18:35:32.004Z,64.10
2018-11-23T18:38:00.953Z,69.23
2018-11-23T18:40:36.705Z,75.57
2018-11-23T18:42:58.845Z,66.20
2018-11-23T18:45:27.774Z,66.25
2018-11-23T18:47:56.915Z,64.72
2018-11-23T18:50:25.842Z,65.10
2018-11-23T18:52:54.816Z,69.58
2018-11-23T18:55:23.749Z,67.70
2018-11-23T18:57:52.715Z,56.88
2018-11-23T19:00:21.863Z,57.50
2018-11-23T19:02:50.857Z,55.12
2018-11-23T19:05:22.451Z,57.03
2018-11-23T19:07:51.447Z,61.15
2018-11-23T19:10:20.489Z,56.10
2018-11-23T19:12:49.491Z,59.93
2018-11-23T19:15:25.322Z,61.88
2018-11-23T19:17:48.024Z,64.85
2018-11-23T19:20:24.223Z,63.57
2018-11-23T19:22:54.375Z,61.05
2018-11-23T19:25:23.360Z,61.20
2018-11-23T19:27:52.307Z,59.08
2018-11-23T19:30:28.065Z,59.53
2018-11-23T19:32:51.546Z,60.70
2018-11-23T19:35:20.525Z,56.63
2018-11-23T19:37:49.452Z,59.27
2018-11-23T19:40:18.409Z,61.80
2018-11-23T19:42:47.330Z,56.30
2018-11-23T19:45:17.656Z,55.05
2018-11-23T19:47:46.649Z,54.33
2018-11-23T19:50:17.711Z,58.13
2018-11-23T19:52:46.801Z,57.80
2018-11-23T19:55:16.862Z,58.48
2018-11-23T19:57:45.943Z,64.12
2018-11-23T20:00:17.283Z,64.40
2018-11-23T20:02:46.255Z,64.35
2018-11-23T20:05:15.227Z,61.98
2018-11-23T20:07:44.694Z,62.87
2018-11-23T20:10:15.810Z,58.73
2018-11-23T20:12:45.615Z,64.37
2018-11-23T20:15:15.763Z,76.03
2018-11-23T20:17:44.678Z,70.27
2018-11-23T20:20:14.748Z,78.97
2018-11-23T20:22:43.762Z,79.07
2018-11-23T20:25:15.709Z,74.75
2018-11-23T20:27:44.946Z,74.58
2018-11-23T20:30:15.012Z,75.80
2018-11-23T20:32:44.559Z,78.70
2018-11-23T20:35:14.601Z,84.93
2018-11-23T20:37:43.557Z,88.15
2018-11-23T20:40:15.071Z,87.82
2018-11-23T20:42:44.000Z,85.60
2018-11-23T20:45:13.377Z,82.08
2018-11-23T20:47:42.417Z,80.42
2018-11-23T20:50:12.502Z,80.35
2018-11-23T20:52:41.439Z,75.20
2018-11-23T20:55:11.812Z,67.50
2018-11-23T20:57:40.746Z,68.53
2018-11-23T21:00:14.791Z,74.27
2018-11-23T21:02:44.047Z,81.70
2018-11-23T21:05:14.213Z,83.97
2018-11-23T21:07:43.148Z,77.17
2018-11-23T21:10:20.357Z,83.10
2018-11-23T21:12:44.357Z,86.67
2018-11-23T21:15:25.442Z,91.32
2018-11-23T21:17:54.617Z,89.35
2018-11-23T21:20:23.598Z,96.37
2018-11-23T21:22:52.558Z,103.78
2018-11-23T21:25:21.542Z,96.50
2018-11-23T21:27:50.469Z,86.60
2018-11-23T21:30:20.701Z,83.30
2018-11-23T21:32:49.772Z,97.03
2018-11-23T21:35:18.722Z,97.90
2018-11-23T21:37:47.652Z,140.00
2018-11-23T21:40:17.026Z,123.62
2018-11-23T21:42:45.966Z,132.25
2018-11-23T21:45:15.877Z,194.00
2018-11-23T21:47:44.826Z,278.77
2018-11-23T21:50:15.718Z,158.70
2018-11-23T21:52:44.720Z,187.13
2018-11-23T21:55:15.991Z,155.37
2018-11-23T21:57:44.977Z,171.23
2018-11-23T22:00:14.876Z,201.20
2018-11-23T22:02:43.912Z,172.20
2018-11-23T22:05:12.928Z,221.37
2018-11-23T22:07:41.905Z,161.13
2018-11-23T22:10:13.821Z,294.73
2018-11-23T22:12:42.861Z,181.77
2018-11-23T22:15:14.467Z,225.50
2018-11-23T22:17:43.436Z,146.82
2018-11-23T22:20:13.573Z,167.43
2018-11-23T22:22:42.507Z,109.53
2018-11-23T22:25:13.620Z,154.40
2018-11-23T22:27:42.750Z,209.20
2018-11-23T22:30:30.281Z,174.65
2018-11-23T22:32:59.796Z,216.07
2018-11-23T22:35:29.871Z,213.62
2018-11-23T22:37:58.816Z,170.70
2018-11-23T22:40:27.779Z,232.00
2018-11-23T22:42:57.915Z,233.27
2018-11-23T22:45:26.882Z,242.30
2018-11-23T22:47:55.814Z,325.22
2018-11-23T22:50:24.968Z,286.60
2018-11-23T22:52:53.916Z,292.62
2018-11-23T22:55:22.876Z,258.85
2018-11-23T22:57:51.803Z,332.67
2018-11-23T23:00:27.602Z,251.20
2018-11-23T23:02:56.539Z,230.92
2018-11-23T23:05:25.509Z,344.90
2018-11-23T23:07:54.471Z,320.70
2018-11-23T23:10:23.421Z,266.45
2018-11-23T23:12:52.343Z,258.47
2018-11-23T23:15:21.278Z,299.70
2018-11-23T23:17:50.234Z,374.98
2018-11-23T23:20:20.238Z,241.65
2018-11-23T23:22:49.168Z,410.17
2018-11-23T23:25:18.105Z,262.12
2018-11-23T23:27:47.071Z,298.85
2018-11-23T23:30:17.028Z,321.52
2018-11-23T23:32:46.647Z,251.67
2018-11-23T23:35:16.339Z,284.48
2018-11-23T23:37:45.322Z,222.27
2018-11-23T23:40:15.460Z,246.93
2018-11-23T23:42:44.439Z,268.70
2018-11-23T23:45:14.368Z,237.32
2018-11-23T23:47:43.328Z,227.40
2018-11-23T23:50:17.446Z,238.70
2018-11-23T23:52:46.412Z,212.08
2018-11-23T23:55:15.323Z,181.95
2018-11-23T23:57:45.270Z,236.40
